Time;durP1;ratioP1;P1;durP2;ratioP2;P2;SDS_P1;SDS_P2;PMS_P1;PMS_P2;Temp;Humidity;BMP_temperature;BMP_pressure;BME280_temperature;BME280_humidity;BME280_pressure;Samples;Min_cycle;Max_cycle;Signal;HPM_P1;HPM_P2
2022/01/20 00:01:43;;;;;;;21.27;10.87;;;;;;;-0.11;85.41;100290.09;5069397;28;20200;-71
2022/01/20 00:04:18;;;;;;;16.67;12.10;;;;;;;-0.19;85.48;100286.50;5067386;28;20215;-71
2022/01/20 00:09:49;;;;;;;22.97;12.00;;;;;;;-0.20;86.03;100289.88;5069082;28;20199;-71
2022/01/20 00:25:44;;;;;;;20.10;13.30;;;;;;;-0.27;86.84;100277.91;5066752;28;20208;-71
2022/01/20 00:26:20;;;;;;;21.53;12.77;;;;;;;-0.27;87.05;100277.91;5068650;28;20286;-71
2022/01/20 00:28:50;;;;;;;19.57;12.20;;;;;;;-0.29;87.30;100273.66;5069253;28;20287;-71
2022/01/20 00:31:33;;;;;;;16.37;12.90;;;;;;;-0.39;87.56;100257.44;5065788;28;20668;-71
2022/01/20 00:34:12;;;;;;;24.03;13.73;;;;;;;-0.37;88.31;100270.06;5068793;28;20283;-71
2022/01/20 00:39:26;;;;;;;14.37;11.97;;;;;;;-0.41;88.52;100264.06;5068898;28;20199;-71
2022/01/20 00:41:54;;;;;;;19.43;13.27;;;;;;;-0.41;88.19;100264.06;5066493;28;20300;-71
2022/01/20 00:44:21;;;;;;;18.37;12.90;;;;;;;-0.38;87.83;100269.19;5068480;28;20235;-71
2022/01/20 00:46:49;;;;;;;17.90;12.33;;;;;;;-0.45;87.69;100258.94;5069112;28;20210;-71
2022/01/20 00:49:16;;;;;;;23.87;12.60;;;;;;;-0.39;87.59;100265.00;5068612;28;20196;-71
2022/01/20 00:51:43;;;;;;;18.43;11.67;;;;;;;-0.37;87.43;100259.97;5065910;28;20228;-71
2022/01/20 00:54:10;;;;;;;24.53;13.73;;;;;;;-0.44;87.48;100253.91;5062082;28;20196;-71
2022/01/20 00:56:38;;;;;;;16.07;12.33;;;;;;;-0.56;87.95;100248.56;5070044;28;20293;-71
2022/01/20 00:59:05;;;;;;;31.60;16.57;;;;;;;-0.60;88.44;100256.81;5068543;28;20212;-71
2022/01/20 01:01:32;;;;;;;42.13;18.47;;;;;;;-0.63;88.93;100256.75;5067068;28;20204;-71
2022/01/20 01:03:59;;;;;;;37.97;18.20;;;;;;;-0.66;89.05;100242.41;5068742;28;20200;-71
2022/01/20 01:06:38;;;;;;;45.80;19.93;;;;;;;-0.67;88.90;100242.34;5068175;28;20202;-71
2022/01/20 01:09:06;;;;;;;54.57;20.43;;;;;;;-0.73;88.94;100252.25;5068202;28;20192;-71
2022/01/20 01:11:33;;;;;;;52.03;19.37;;;;;;;-0.90;89.26;100218.19;5069130;28;20196;-71
2022/01/20 01:14:03;;;;;;;42.30;18.33;;;;;;;-0.72;89.08;100231.31;5068399;28;20731;-71
2022/01/20 01:16:42;;;;;;;40.73;17.20;;;;;;;-0.75;89.21;100228.72;5067890;28;20207;-71
2022/01/20 01:22:04;;;;;;;29.33;14.37;;;;;;;-0.80;89.85;100222.69;5069152;28;20194;-71
2022/01/20 01:24:31;;;;;;;33.10;14.83;;;;;;;-0.81;89.68;100210.94;5067702;28;20230;-71
2022/01/20 01:26:58;;;;;;;35.50;16.40;;;;;;;-0.82;89.68;100202.50;5068682;28;20204;-71
2022/01/20 01:29:45;;;;;;;36.97;17.00;;;;;;;-0.80;89.45;100200.03;5068302;28;20288;-71
2022/01/20 01:32:16;;;;;;;69.03;25.30;;;;;;;-0.78;89.08;100200.94;5067924;28;20272;-71
2022/01/20 01:34:48;;;;;;;88.57;28.67;;;;;;;-0.87;89.15;100200.69;5068992;28;20215;-71
2022/01/20 01:37:35;;;;;;;103.57;36.30;;;;;;;-0.97;89.90;100181.97;5067225;28;20218;-70
2022/01/20 01:40:07;;;;;;;71.57;25.50;;;;;;;-1.03;90.31;100199.38;5069332;28;20203;-71
2022/01/20 01:42:40;;;;;;;60.80;24.20;;;;;;;-1.00;90.60;100191.09;5068137;28;20200;-71
2022/01/20 01:45:12;;;;;;;62.00;25.57;;;;;;;-1.06;90.61;100181.69;5068037;28;20281;-70
2022/01/20 01:47:39;;;;;;;58.47;22.90;;;;;;;-1.03;90.58;100183.44;5068748;28;20583;-71
2022/01/20 01:50:07;;;;;;;42.73;20.50;;;;;;;-1.02;90.64;100182.63;5067847;28;20200;-71
2022/01/20 01:52:34;;;;;;;25.30;16.40;;;;;;;-1.10;90.78;100164.81;5067371;28;20695;-71
2022/01/20 01:55:01;;;;;;;29.53;14.60;;;;;;;-1.04;91.06;100186.78;5067515;28;20230;-71
2022/01/20 01:57:28;;;;;;;19.53;12.40;;;;;;;-1.07;90.91;100187.53;5067317;28;20211;-71
2022/01/20 01:59:56;;;;;;;16.00;11.80;;;;;;;-1.15;91.13;100179.75;5066530;28;20200;-71
2022/01/20 02:02:25;;;;;;;17.50;11.13;;;;;;;-1.19;91.70;100177.97;5068141;28;20588;-71
2022/01/20 02:04:51;;;;;;;15.87;12.20;;;;;;;-1.20;92.01;100176.28;5069564;28;20290;-71
2022/01/20 02:18:36;;;;;;;30.17;12.53;;;;;;;-1.19;90.85;100164.53;5068175;28;20281;-71
2022/01/20 02:21:05;;;;;;;20.30;12.30;;;;;;;-1.25;90.82;100164.34;5068847;28;20702;-71
2022/01/20 02:23:32;;;;;;;24.87;14.33;;;;;;;-1.24;90.71;100153.50;5069513;28;20676;-71
2022/01/20 02:25:59;;;;;;;20.57;12.33;;;;;;;-1.34;90.65;100139.81;5069797;28;20207;-71
2022/01/20 02:28:27;;;;;;;31.90;16.03;;;;;;;-1.36;90.90;100146.47;5070284;28;20246;-71
2022/01/20 02:30:55;;;;;;;30.80;14.07;;;;;;;-1.38;90.91;100150.56;5071725;28;20203;-71
2022/01/20 02:33:25;;;;;;;25.70;14.47;;;;;;;-1.68;91.54;100145.47;5070801;28;20726;-70
2022/01/20 02:35:54;;;;;;;26.43;14.40;;;;;;;-1.74;92.15;100149.47;5071400;28;20196;-71
2022/01/20 02:38:29;;;;;;;23.40;13.67;;;;;;;-1.72;92.39;100142.84;5070836;28;20220;-70
2022/01/20 02:46:37;;;;;;;19.33;12.87;;;;;;;-1.91;93.26;100135.53;5029170;28;20194;-70
2022/01/20 02:49:04;;;;;;;38.03;19.57;;;;;;;-2.01;93.42;100123.50;5061279;28;20196;-71
2022/01/20 02:51:31;;;;;;;38.67;17.13;;;;;;;-1.90;93.19;100133.06;5070029;28;20298;-71
2022/01/20 02:54:00;;;;;;;23.37;12.57;;;;;;;-1.98;92.81;100124.44;5069993;28;20212;-71
2022/01/20 02:56:27;;;;;;;19.23;12.03;;;;;;;-1.97;92.78;100126.13;5069999;28;20204;-71
2022/01/20 02:58:54;;;;;;;29.87;14.57;;;;;;;-1.92;92.98;100126.28;5071021;28;20216;-71
2022/01/20 03:01:21;;;;;;;25.33;13.63;;;;;;;-1.88;92.71;100130.63;5066834;28;20283;-71
2022/01/20 03:03:47;;;;;;;23.00;14.10;;;;;;;-1.83;92.51;100124.06;5070549;28;20208;-71
2022/01/20 03:06:14;;;;;;;28.20;12.90;;;;;;;-1.81;92.47;100124.97;5070929;28;20657;-71
2022/01/20 03:08:41;;;;;;;21.73;13.07;;;;;;;-1.77;92.02;100124.25;5071162;28;20192;-71
2022/01/20 03:11:09;;;;;;;24.30;14.00;;;;;;;-1.81;92.16;100122.47;5069927;28;20675;-71
2022/01/20 03:13:36;;;;;;;17.13;11.90;;;;;;;-1.81;92.12;100117.44;5071115;28;20200;-71
2022/01/20 03:16:04;;;;;;;27.07;13.07;;;;;;;-1.86;92.26;100119.78;5070116;28;20648;-71
2022/01/20 03:18:31;;;;;;;18.70;12.43;;;;;;;-1.86;92.63;100117.28;5070562;28;20654;-72
2022/01/20 03:20:58;;;;;;;20.73;12.47;;;;;;;-1.85;92.38;100116.50;5070555;28;20283;-71
2022/01/20 03:23:25;;;;;;;23.60;13.17;;;;;;;-1.81;92.26;100108.22;5068498;28;20217;-72
2022/01/20 03:25:52;;;;;;;19.63;12.70;;;;;;;-1.80;91.95;100106.56;5071258;28;20200;-72
2022/01/20 03:28:20;;;;;;;26.17;14.47;;;;;;;-1.80;91.94;100104.91;5070633;28;20850;-72
2022/01/20 03:30:47;;;;;;;30.00;15.00;;;;;;;-1.81;92.15;100109.91;5070481;28;20200;-72
2022/01/20 03:33:14;;;;;;;20.60;13.20;;;;;;;-1.84;92.07;100107.28;5069651;28;20207;-71
2022/01/20 03:35:41;;;;;;;22.57;11.87;;;;;;;-2.18;92.98;100091.16;5070279;28;20196;-71
2022/01/20 03:38:09;;;;;;;17.63;12.57;;;;;;;-2.13;93.07;100086.28;5069461;28;20222;-71
2022/01/20 03:40:36;;;;;;;22.57;11.30;;;;;;;-2.26;93.21;100082.53;5070672;28;20672;-71
2022/01/20 03:43:03;;;;;;;15.73;10.20;;;;;;;-2.19;93.68;100103.66;5070091;28;20282;-70
2022/01/20 03:45:32;;;;;;;16.97;12.20;;;;;;;-2.16;93.65;100109.63;5069079;28;20231;-71
2022/01/20 03:48:07;;;;;;;17.90;11.67;;;;;;;-2.13;93.85;100099.69;5070935;28;20283;-71
2022/01/20 03:53:19;;;;;;;17.27;11.60;;;;;;;-2.22;93.66;100076.81;5068184;28;20207;-71
2022/01/20 03:55:46;;;;;;;22.90;11.67;;;;;;;-2.06;93.29;100097.34;5068658;28;20192;-72
2022/01/20 03:58:13;;;;;;;17.87;11.70;;;;;;;-2.08;93.63;100104.00;5069110;28;20216;-71
2022/01/20 04:00:41;;;;;;;21.57;13.13;;;;;;;-2.08;93.71;100106.53;5069921;28;20287;-71
2022/01/20 04:03:08;;;;;;;26.80;13.23;;;;;;;-2.07;93.56;100108.25;5068556;28;20672;-71
2022/01/20 04:05:39;;;;;;;25.40;12.63;;;;;;;-2.03;93.30;100107.50;5068421;28;20579;-71
2022/01/20 04:08:07;;;;;;;12.37;10.80;;;;;;;-2.01;92.96;100108.41;5068360;28;20188;-71
2022/01/20 04:10:34;;;;;;;14.70;10.40;;;;;;;-2.01;92.87;100113.44;5068039;28;20200;-71
2022/01/20 04:13:01;;;;;;;14.97;11.57;;;;;;;-2.05;92.84;100104.09;5067867;28;20837;-71
2022/01/20 04:15:37;;;;;;;17.53;9.97;;;;;;;-2.04;92.75;100105.81;5067030;28;20192;-71
2022/01/20 04:18:06;;;;;;;14.53;9.87;;;;;;;-2.07;92.85;100093.16;5067301;28;20259;-72
2022/01/20 04:20:33;;;;;;;18.13;11.47;;;;;;;-2.05;92.73;100096.56;5066268;28;20310;-71
2022/01/20 04:23:00;;;;;;;19.70;10.97;;;;;;;-2.25;92.79;100073.34;5068631;28;20200;-72
2022/01/20 04:25:27;;;;;;;14.63;10.13;;;;;;;-2.07;92.79;100104.06;5067508;28;20297;-71
2022/01/20 04:27:54;;;;;;;11.83;9.73;;;;;;;-2.14;92.64;100087.97;5066720;28;20299;-71
2022/01/20 04:30:21;;;;;;;14.57;10.30;;;;;;;-2.07;92.28;100103.22;5066768;28;20202;-71
2022/01/20 04:32:48;;;;;;;20.53;10.70;;;;;;;-2.07;91.79;100109.09;5067501;28;20290;-71
2022/01/20 04:35:19;;;;;;;12.03;9.80;;;;;;;-2.11;91.76;100107.28;5066900;28;20283;-71
2022/01/20 04:37:48;;;;;;;15.30;10.47;;;;;;;-2.12;91.68;100106.44;5067577;28;20702;-71
2022/01/20 04:40:16;;;;;;;17.30;8.67;;;;;;;-2.16;91.54;100099.59;5067430;28;20698;-71
2022/01/20 04:42:45;;;;;;;15.17;8.83;;;;;;;-2.21;91.78;100098.59;5068953;28;20203;-71
2022/01/20 04:45:16;;;;;;;13.47;10.43;;;;;;;-2.33;92.04;100092.34;5067791;28;20301;-71
2022/01/20 04:47:50;;;;;;;12.00;8.77;;;;;;;-2.32;92.55;100101.56;5068406;28;20671;-71
2022/01/20 04:58:34;;;;;;;12.93;9.00;;;;;;;-2.45;92.92;100094.44;5041545;28;20229;-71
2022/01/20 05:01:02;;;;;;;11.00;7.43;;;;;;;-2.50;93.15;100095.97;5068696;28;20206;-71
2022/01/20 05:03:29;;;;;;;9.23;8.17;;;;;;;-2.57;93.60;100094.03;5068851;28;20199;-71
2022/01/20 05:05:57;;;;;;;19.87;10.50;;;;;;;-2.64;94.08;100087.97;5068596;28;20203;-70
2022/01/20 05:08:28;;;;;;;16.73;10.17;;;;;;;-2.74;94.81;100085.94;5068239;28;20192;-71
2022/01/20 05:10:55;;;;;;;14.10;10.77;;;;;;;-2.72;94.87;100099.41;5069293;28;20226;-71
2022/01/20 05:13:25;;;;;;;12.07;10.70;;;;;;;-2.72;94.86;100091.91;5067750;28;20215;-71
2022/01/20 05:15:52;;;;;;;16.90;11.33;;;;;;;-2.68;94.89;100097.03;5068729;28;20227;-70
2022/01/20 05:18:19;;;;;;;17.67;13.87;;;;;;;-2.65;94.68;100096.31;5067934;28;20299;-71
2022/01/20 05:20:46;;;;;;;29.50;16.73;;;;;;;-2.65;94.22;100097.16;5069310;28;20652;-71
2022/01/20 05:23:14;;;;;;;23.17;16.53;;;;;;;-2.62;94.28;100098.94;5067984;28;20196;-71
2022/01/20 05:25:41;;;;;;;19.90;14.33;;;;;;;-2.63;94.09;100094.69;5068969;28;20684;-71
2022/01/20 05:28:08;;;;;;;24.50;13.10;;;;;;;-2.72;93.99;100081.84;5067330;28;20203;-71
2022/01/20 05:30:35;;;;;;;19.83;13.53;;;;;;;-2.65;93.64;100088.78;5067460;28;20223;-71
2022/01/20 05:33:02;;;;;;;21.80;15.03;;;;;;;-2.67;93.80;100090.38;5068161;28;20204;-71
2022/01/20 05:35:29;;;;;;;17.83;13.80;;;;;;;-2.68;93.92;100091.16;5068020;28;20196;-71
2022/01/20 05:37:57;;;;;;;20.50;14.00;;;;;;;-2.68;93.86;100096.19;5068097;28;20211;-71
2022/01/20 05:40:26;;;;;;;23.87;15.23;;;;;;;-2.77;94.14;100095.88;5069917;28;20310;-72
2022/01/20 05:42:53;;;;;;;16.10;10.97;;;;;;;-2.77;94.22;100098.41;5067110;28;20200;-71
2022/01/20 05:45:20;;;;;;;17.87;11.00;;;;;;;-2.78;93.99;100101.72;5069536;28;20310;-71
2022/01/20 05:47:49;;;;;;;18.87;12.00;;;;;;;-2.77;94.04;100094.25;5071719;28;20231;-71
2022/01/20 05:50:18;;;;;;;42.60;19.60;;;;;;;-2.76;93.89;100095.94;5068396;28;20643;-71
2022/01/20 05:52:45;;;;;;;44.23;19.33;;;;;;;-2.74;93.36;100091.81;5072643;28;20299;-71
2022/01/20 05:55:14;;;;;;;44.43;16.17;;;;;;;-2.70;93.32;100087.78;5071347;28;20291;-71
2022/01/20 05:57:42;;;;;;;25.10;12.23;;;;;;;-2.68;93.13;100081.13;5072131;28;20200;-72
2022/01/20 06:00:13;;;;;;;20.27;10.67;;;;;;;-2.70;92.80;100086.13;5071335;28;20212;-70
2022/01/20 06:05:20;;;;;;;10.73;9.03;;;;;;;-2.74;92.83;100086.81;5071204;28;20776;-71
2022/01/20 06:07:47;;;;;;;10.80;9.63;;;;;;;-2.83;92.86;100061.41;5070802;28;20287;-71
2022/01/20 06:10:14;;;;;;;11.13;8.67;;;;;;;-2.82;92.96;100058.13;5071996;28;20200;-71
2022/01/20 06:12:42;;;;;;;15.93;9.17;;;;;;;-2.85;93.21;100047.97;5072194;28;20208;-70
2022/01/20 06:15:13;;;;;;;22.53;14.07;;;;;;;-2.86;93.33;100045.41;5071349;28;20192;-71
2022/01/20 06:17:40;;;;;;;31.37;16.23;;;;;;;-2.91;93.44;100036.88;5072042;28;20196;-71
2022/01/20 06:20:08;;;;;;;26.73;15.47;;;;;;;-2.69;93.56;100059.38;5071037;28;20596;-71
2022/01/20 06:22:35;;;;;;;23.70;13.77;;;;;;;-2.81;93.74;100038.91;5071682;28;20590;-71
2022/01/20 06:25:03;;;;;;;22.20;13.33;;;;;;;-2.68;93.88;100071.09;5071442;28;20215;-71
2022/01/20 06:27:30;;;;;;;29.53;14.00;;;;;;;-2.68;94.19;100074.47;5071648;28;20741;-70
2022/01/20 06:29:58;;;;;;;20.03;12.13;;;;;;;-2.66;94.46;100072.03;5071513;28;20656;-71
2022/01/20 06:32:26;;;;;;;18.20;12.43;;;;;;;-2.81;94.55;100041.41;5067644;28;20288;-70
2022/01/20 06:34:53;;;;;;;27.17;14.37;;;;;;;-2.62;94.43;100065.44;5064978;28;20283;-71
2022/01/20 06:37:20;;;;;;;23.13;14.60;;;;;;;-2.60;94.37;100076.38;5065792;28;20199;-71
2022/01/20 06:39:47;;;;;;;20.50;13.57;;;;;;;-2.61;94.71;100073.00;5070405;28;20302;-71
2022/01/20 06:42:13;;;;;;;35.50;17.60;;;;;;;-2.60;94.54;100063.84;5066883;28;20684;-71
2022/01/20 06:44:40;;;;;;;55.40;24.93;;;;;;;-2.57;94.60;100059.78;5069028;28;20251;-70
2022/01/20 06:47:09;;;;;;;60.97;26.53;;;;;;;-2.53;95.17;100065.75;5066788;28;20211;-71
2022/01/20 06:49:36;;;;;;;38.10;20.10;;;;;;;-2.53;95.85;100066.59;5065019;28;20220;-63
2022/01/20 06:52:04;;;;;;;27.67;17.60;;;;;;;-2.54;96.56;100064.88;5067599;28;20638;-64
2022/01/20 06:54:31;;;;;;;28.10;16.10;;;;;;;-2.49;97.07;100062.53;5064286;28;20207;-64
2022/01/20 06:56:59;;;;;;;21.20;12.93;;;;;;;-2.44;97.63;100054.34;5062669;28;20361;-65
2022/01/20 06:59:26;;;;;;;25.10;13.07;;;;;;;-2.44;98.64;100071.91;5069584;28;20231;-71
2022/01/20 07:01:53;;;;;;;21.63;12.80;;;;;;;-2.56;99.44;100046.44;5069034;28;20593;-71
2022/01/20 07:04:21;;;;;;;21.07;13.77;;;;;;;-2.46;100.00;100058.47;5068937;28;20287;-71
2022/01/20 07:06:48;;;;;;;29.13;14.87;;;;;;;-2.42;100.00;100060.25;5069867;28;20232;-71
2022/01/20 07:09:16;;;;;;;48.73;21.97;;;;;;;-2.39;100.00;100055.31;5066634;28;20234;-70
2022/01/20 07:11:43;;;;;;;30.77;16.53;;;;;;;-2.44;100.00;100071.06;5068188;28;20196;-70
2022/01/20 07:14:10;;;;;;;28.67;15.50;;;;;;;-2.36;100.00;100067.16;5069743;28;20204;-69
2022/01/20 07:16:37;;;;;;;31.27;17.10;;;;;;;-2.31;100.00;100079.03;5069272;28;20673;-70
2022/01/20 07:19:04;;;;;;;35.70;16.07;;;;;;;-2.23;100.00;100072.56;5066898;28;20227;-70
2022/01/20 07:21:32;;;;;;;30.97;14.93;;;;;;;-2.18;100.00;100070.22;5068323;28;20653;-71
2022/01/20 07:23:59;;;;;;;40.07;21.67;;;;;;;-2.12;99.98;100065.38;5067056;28;20200;-69
2022/01/20 07:26:26;;;;;;;85.97;39.77;;;;;;;-2.07;99.81;100052.97;5068427;28;20232;-69
2022/01/20 07:28:53;;;;;;;42.00;20.87;;;;;;;-2.00;99.66;100049.84;5069185;28;20204;-69
2022/01/20 07:31:22;;;;;;;30.17;19.17;;;;;;;-1.98;99.65;100029.00;5068587;28;21194;-70
2022/01/20 07:33:50;;;;;;;36.23;18.13;;;;;;;-2.00;99.63;100029.75;5067794;28;20553;-71
2022/01/20 07:36:17;;;;;;;39.53;16.33;;;;;;;-1.95;99.84;100039.13;5070246;28;20204;-70
2022/01/20 07:38:46;;;;;;;38.80;19.50;;;;;;;-1.97;99.57;100009.75;5067949;28;20210;-69
2022/01/20 07:41:13;;;;;;;30.87;17.53;;;;;;;-1.81;99.22;100037.03;5067691;28;20203;-69
2022/01/20 07:43:40;;;;;;;43.80;23.07;;;;;;;-1.82;98.86;100030.28;5068794;28;20247;-69
2022/01/20 07:46:07;;;;;;;51.50;19.70;;;;;;;-1.77;99.07;100033.78;5067665;28;20200;-69
2022/01/20 07:48:34;;;;;;;40.00;20.07;;;;;;;-1.76;98.57;100035.47;5068720;28;20220;-68
2022/01/20 07:51:01;;;;;;;84.00;38.47;;;;;;;-1.71;98.61;100036.44;5068499;28;20727;-69
2022/01/20 07:53:28;;;;;;;92.90;34.43;;;;;;;-1.66;99.61;100024.88;5068336;28;20282;-69
2022/01/20 07:55:56;;;;;;;71.03;30.50;;;;;;;-1.66;99.95;100022.38;5069058;28;20208;-69
2022/01/20 07:58:23;;;;;;;60.57;29.43;;;;;;;-1.58;100.00;100023.44;5060846;28;20295;-69
2022/01/20 08:00:50;;;;;;;43.93;23.80;;;;;;;-1.43;100.00;100023.88;5065672;28;20228;-66
2022/01/20 08:03:17;;;;;;;45.07;23.53;;;;;;;-1.30;100.00;100023.41;5064709;28;20197;-67
2022/01/20 08:05:45;;;;;;;55.57;24.67;;;;;;;-1.15;99.92;100033.84;5064875;28;20294;-71
2022/01/20 08:08:14;;;;;;;43.43;23.97;;;;;;;-1.02;99.49;100036.69;5066769;28;20239;-70
2022/01/20 08:10:43;;;;;;;41.90;22.10;;;;;;;-0.97;99.06;100020.06;5066185;28;20203;-69
2022/01/20 08:13:12;;;;;;;22.57;17.33;;;;;;;-0.75;97.95;100037.41;5066563;28;20227;-70
2022/01/20 08:15:39;;;;;;;28.20;17.03;;;;;;;-0.62;96.89;100046.97;5068876;28;20196;-69
2022/01/20 08:18:08;;;;;;;31.33;17.80;;;;;;;-0.45;96.09;100035.63;5068922;28;20651;-69
2022/01/20 08:20:35;;;;;;;36.40;16.37;;;;;;;-0.28;96.48;100029.31;5068896;28;20246;-71
2022/01/20 08:23:03;;;;;;;26.53;15.33;;;;;;;-0.14;96.00;100027.97;5067593;28;20215;-71
2022/01/20 08:25:31;;;;;;;29.23;15.37;;;;;;;-0.01;94.76;100024.91;5069932;28;20641;-69
2022/01/20 08:27:58;;;;;;;24.90;15.47;;;;;;;0.15;94.00;100021.03;5068662;28;20265;-73
2022/01/20 08:30:28;;;;;;;31.57;16.43;;;;;;;0.18;92.29;100010.16;5068474;28;20200;-73
2022/01/20 08:32:55;;;;;;;28.47;17.63;;;;;;;0.40;91.17;100012.31;5063148;28;20207;-73
2022/01/20 08:35:23;;;;;;;26.93;16.10;;;;;;;0.52;91.19;100026.00;5062567;28;20204;-73
2022/01/20 08:37:51;;;;;;;32.83;18.70;;;;;;;0.70;90.40;100019.63;5059882;28;20232;-73
2022/01/20 08:40:22;;;;;;;32.00;18.70;;;;;;;0.76;90.45;100023.13;5059949;28;20306;-70
2022/01/20 08:42:50;;;;;;;33.43;19.00;;;;;;;0.91;91.15;100018.34;5065838;28;20197;-69
2022/01/20 08:45:21;;;;;;;39.00;19.50;;;;;;;1.01;89.26;100030.31;5063940;28;20277;-70
2022/01/20 08:47:52;;;;;;;37.73;22.40;;;;;;;1.12;87.72;100019.56;5065850;28;20222;-69
2022/01/20 08:50:19;;;;;;;32.63;17.40;;;;;;;1.22;86.86;100023.94;5063236;28;20200;-70
2022/01/20 08:52:46;;;;;;;35.97;16.37;;;;;;;1.32;87.68;100019.09;5069830;28;20195;-71
2022/01/20 08:55:13;;;;;;;24.90;15.87;;;;;;;1.43;86.58;100014.19;5067081;28;20200;-70
2022/01/20 08:57:40;;;;;;;58.20;38.70;;;;;;;1.51;86.64;100025.28;5062803;28;20212;-71
2022/01/20 09:00:09;;;;;;;26.20;16.23;;;;;;;1.62;86.13;100021.22;5065137;28;20216;-71
2022/01/20 09:02:36;;;;;;;35.37;20.93;;;;;;;1.59;85.99;100006.03;5065614;28;20850;-71
2022/01/20 09:05:06;;;;;;;51.13;33.27;;;;;;;1.80;84.67;100031.63;5066258;28;20227;-72
2022/01/20 09:07:33;;;;;;;19.50;13.20;;;;;;;1.94;82.51;100017.50;5064147;28;20299;-71
2022/01/20 09:10:04;;;;;;;30.43;15.33;;;;;;;2.02;81.94;100023.53;5065950;28;20282;-70
2022/01/20 09:15:32;;;;;;;24.57;14.43;;;;;;;2.07;81.42;100037.06;5070327;28;20203;-75
2022/01/20 09:18:01;;;;;;;21.20;13.77;;;;;;;2.18;81.73;100039.75;5072875;28;20288;-75
2022/01/20 09:20:30;;;;;;;22.20;14.53;;;;;;;2.30;81.85;100023.88;5070295;28;20307;-74
2022/01/20 09:22:58;;;;;;;69.67;36.17;;;;;;;2.40;82.13;100026.56;5072989;28;20199;-72
2022/01/20 09:25:25;;;;;;;24.63;16.47;;;;;;;2.40;81.02;100013.03;5072513;28;20207;-74
2022/01/20 09:27:55;;;;;;;25.27;14.70;;;;;;;2.53;80.50;100012.38;5071793;28;20196;-75
2022/01/20 09:30:23;;;;;;;33.40;15.47;;;;;;;2.69;80.07;99998.19;5071605;28;20200;-75
2022/01/20 09:33:01;;;;;;;22.17;15.50;;;;;;;2.69;79.59;99999.06;5073147;28;20600;-73
2022/01/20 09:35:33;;;;;;;33.77;17.47;;;;;;;2.68;79.61;99992.31;5070147;28;20208;-73
2022/01/20 09:38:01;;;;;;;24.97;15.80;;;;;;;2.82;79.13;99985.69;5071929;28;20196;-75
2022/01/20 09:40:30;;;;;;;29.70;17.13;;;;;;;2.92;78.14;99982.41;5070165;28;20699;-75
2022/01/20 09:42:57;;;;;;;28.23;16.80;;;;;;;2.91;77.94;99955.38;5072883;28;20211;-74
2022/01/20 09:45:24;;;;;;;27.27;16.80;;;;;;;3.04;79.29;99972.41;5070482;28;20370;-74
2022/01/20 09:47:51;;;;;;;32.93;18.07;;;;;;;3.13;78.76;99972.47;5069479;28;20208;-69
2022/01/20 09:50:20;;;;;;;29.17;17.63;;;;;;;3.11;78.34;99951.34;5072177;28;20196;-69
2022/01/20 09:52:50;;;;;;;28.70;16.43;;;;;;;3.27;78.13;99943.88;5072342;28;20227;-69
2022/01/20 09:55:18;;;;;;;32.30;19.20;;;;;;;3.29;76.05;99947.28;5070153;28;20741;-68
2022/01/20 09:57:46;;;;;;;30.03;17.80;;;;;;;3.37;75.42;99938.03;5072405;28;20200;-69
2022/01/20 10:00:16;;;;;;;32.10;17.90;;;;;;;3.37;75.97;99935.50;5071765;28;21856;-67
2022/01/20 10:02:54;;;;;;;25.03;16.47;;;;;;;3.51;75.95;99933.94;5069466;28;20623;-67
2022/01/20 10:05:26;;;;;;;33.13;17.70;;;;;;;3.55;75.07;99917.91;5071506;28;20208;-69
2022/01/20 10:08:01;;;;;;;28.73;17.03;;;;;;;3.66;74.86;99903.59;5070388;28;20583;-69
2022/01/20 10:10:37;;;;;;;29.93;15.00;;;;;;;3.78;74.01;99898.56;5071099;28;20328;-70
2022/01/20 10:13:06;;;;;;;29.20;15.80;;;;;;;3.86;73.45;99896.94;5069878;28;20199;-69
2022/01/20 10:15:33;;;;;;;31.20;15.90;;;;;;;3.89;73.66;99876.66;5071128;28;20211;-69
2022/01/20 10:18:08;;;;;;;23.73;15.47;;;;;;;4.03;72.34;99885.19;5069159;28;20204;-69
2022/01/20 10:20:35;;;;;;;23.23;15.30;;;;;;;4.13;72.15;99886.91;5070337;28;21139;-69
2022/01/20 10:23:04;;;;;;;27.43;15.43;;;;;;;4.10;71.75;99891.94;5068458;28;20201;-69
2022/01/20 10:25:36;;;;;;;22.17;14.87;;;;;;;4.20;72.36;99882.72;5068753;28;20200;-70
2022/01/20 10:28:03;;;;;;;22.60;14.40;;;;;;;4.29;71.05;99871.72;5072391;28;20200;-68
2022/01/20 10:30:33;;;;;;;29.40;16.67;;;;;;;4.35;71.65;99872.59;5072150;28;20652;-68
2022/01/20 10:33:01;;;;;;;29.53;16.30;;;;;;;4.51;70.76;99868.38;5072333;28;20219;-67
2022/01/20 10:35:34;;;;;;;27.07;15.50;;;;;;;4.65;71.53;99852.31;5071302;28;20203;-68
2022/01/20 10:38:11;;;;;;;30.13;19.83;;;;;;;4.76;70.55;99849.78;5067452;28;20209;-68
2022/01/20 10:40:49;;;;;;;27.27;15.87;;;;;;;4.81;70.55;99843.03;5069202;28;20223;-68
2022/01/20 10:43:21;;;;;;;28.10;12.93;;;;;;;4.86;68.26;99848.09;5069892;28;20208;-68
2022/01/20 10:45:48;;;;;;;24.77;13.70;;;;;;;4.95;68.40;99846.41;5069439;28;20269;-67
2022/01/20 10:48:19;;;;;;;23.67;15.77;;;;;;;5.04;67.75;99826.06;5068410;28;20200;-76
2022/01/20 10:50:46;;;;;;;33.23;18.00;;;;;;;5.06;67.66;99798.97;5066517;28;20725;-76
2022/01/20 10:53:20;;;;;;;26.10;17.47;;;;;;;5.29;69.63;99802.31;5072038;28;20207;-76
2022/01/20 10:55:49;;;;;;;23.93;16.30;;;;;;;5.27;67.87;99804.00;5071731;28;20203;-77
2022/01/20 10:58:17;;;;;;;24.47;15.80;;;;;;;5.32;67.73;99800.59;5070499;28;20200;-77
2022/01/20 11:00:46;;;;;;;16.27;12.80;;;;;;;5.43;67.82;99794.63;5070863;28;20220;-77
2022/01/20 11:03:14;;;;;;;20.20;13.77;;;;;;;5.53;66.61;99798.84;5065654;28;20197;-77
2022/01/20 11:05:44;;;;;;;29.57;18.57;;;;;;;5.65;64.28;99793.72;5069724;28;20716;-76
2022/01/20 11:08:12;;;;;;;34.20;21.13;;;;;;;5.68;64.38;99780.13;5071706;28;20196;-76
2022/01/20 11:10:41;;;;;;;23.37;12.80;;;;;;;5.83;65.00;99785.16;5072349;28;20204;-75
2022/01/20 11:13:10;;;;;;;19.77;12.40;;;;;;;5.91;64.75;99783.47;5069367;28;20286;-76
2022/01/20 11:15:38;;;;;;;22.60;13.70;;;;;;;6.01;63.97;99784.25;5071532;28;20212;-76
2022/01/20 11:18:05;;;;;;;21.90;14.47;;;;;;;6.13;62.91;99785.03;5071876;28;20227;-76
2022/01/20 11:20:41;;;;;;;24.03;11.63;;;;;;;6.14;62.85;99786.69;5067851;28;20223;-76
2022/01/20 11:23:08;;;;;;;16.33;11.47;;;;;;;6.20;62.11;99771.38;5069676;28;20200;-76
2022/01/20 11:25:39;;;;;;;21.53;12.43;;;;;;;6.18;63.12;99777.34;5069661;28;20200;-76
2022/01/20 11:28:08;;;;;;;21.70;11.93;;;;;;;6.29;64.24;99775.56;5071496;28;20196;-76
2022/01/20 11:30:39;;;;;;;15.57;10.83;;;;;;;6.39;62.15;99771.25;5068996;28;20666;-76
2022/01/20 11:33:08;;;;;;;17.57;12.33;;;;;;;6.33;63.40;99767.06;5069039;28;21173;-70
2022/01/20 11:35:47;;;;;;;18.60;12.47;;;;;;;6.38;63.32;99760.22;5067677;28;20544;-72
2022/01/20 11:38:16;;;;;;;16.37;11.70;;;;;;;6.40;63.28;99752.59;5069266;28;20673;-73
2022/01/20 11:40:52;;;;;;;20.90;13.60;;;;;;;6.41;62.66;99759.34;5071185;28;20219;-72
2022/01/20 11:43:31;;;;;;;23.27;13.13;;;;;;;6.39;63.25;99745.81;5070895;28;20227;-73
2022/01/20 11:46:10;;;;;;;26.17;13.53;;;;;;;6.49;63.88;99744.88;5065019;28;20208;-73
2022/01/20 11:48:37;;;;;;;32.47;18.43;;;;;;;6.42;63.66;99725.41;5068328;28;20200;-74
2022/01/20 11:51:05;;;;;;;25.47;16.23;;;;;;;6.49;63.20;99732.16;5070438;28;20195;-70
2022/01/20 11:53:32;;;;;;;22.53;14.80;;;;;;;6.54;63.93;99718.50;5071134;28;20208;-72
2022/01/20 11:56:00;;;;;;;23.30;13.27;;;;;;;6.63;62.04;99725.22;5071561;28;20207;-73
2022/01/20 11:58:27;;;;;;;32.07;16.83;;;;;;;6.66;63.52;99730.28;5071897;28;20207;-74
2022/01/20 12:00:59;;;;;;;21.70;14.23;;;;;;;6.54;64.80;99699.81;5070107;28;20216;-74
2022/01/20 12:03:28;;;;;;;26.43;14.97;;;;;;;6.72;63.24;99730.25;5069417;28;20677;-73
2022/01/20 12:05:59;;;;;;;25.93;14.73;;;;;;;6.75;62.66;99725.94;5069704;28;20253;-76
2022/01/20 12:08:26;;;;;;;28.33;14.17;;;;;;;6.81;62.36;99719.97;5069227;28;20196;-74
2022/01/20 12:11:01;;;;;;;28.63;16.77;;;;;;;6.79;63.36;99719.09;5069491;28;20659;-76
2022/01/20 12:13:30;;;;;;;24.70;15.77;;;;;;;6.77;62.71;99715.75;5069310;28;20199;-76
2022/01/20 12:16:00;;;;;;;23.90;13.77;;;;;;;6.75;62.25;99704.72;5070156;28;20635;-74